Time;durP1;ratioP1;P1;durP2;ratioP2;P2;SDS_P1;SDS_P2;PMS_P1;PMS_P2;Temp;Humidity;BMP_temperature;BMP_pressure;BME280_temperature;BME280_humidity;BME280_pressure;Samples;Min_cycle;Max_cycle;Signal;HPM_P1;HPM_P2
2024/01/29 00:00:46;;;;;;;4.25;2.45;;;7.40;99.90;;;;;;5245804;22;20022;-81
2024/01/29 00:02:47;;;;;;;4.30;2.20;;;6.60;99.90;;;;;;5217433;22;20054;-80
2024/01/29 00:04:48;;;;;;;5.53;2.50;;;6.90;99.90;;;;;;5245751;22;20080;-80
2024/01/29 00:06:50;;;;;;;4.03;2.38;;;7.50;99.90;;;;;;5245874;22;20057;-81
2024/01/29 00:08:52;;;;;;;5.53;2.70;;;6.60;99.90;;;;;;5245793;22;20075;-80
2024/01/29 00:10:53;;;;;;;10.05;2.45;;;7.60;99.90;;;;;;5245024;22;20030;-80
2024/01/29 00:12:53;;;;;;;5.00;1.90;;;6.60;99.90;;;;;;5245689;22;20011;-80
2024/01/29 00:14:54;;;;;;;3.97;2.30;;;6.80;99.90;;;;;;5245915;22;20014;-81
2024/01/29 00:16:55;;;;;;;6.03;3.17;;;6.50;99.90;;;;;;5246275;22;20019;-80
2024/01/29 00:18:55;;;;;;;5.38;2.17;;;6.90;99.90;;;;;;5245769;22;20023;-80
2024/01/29 00:20:57;;;;;;;7.80;2.67;;;6.60;99.90;;;;;;5245100;22;20015;-80
2024/01/29 00:22:58;;;;;;;6.40;2.45;;;6.50;99.90;;;;;;5245258;22;20022;-81
2024/01/29 00:24:58;;;;;;;6.50;2.10;;;6.50;99.90;;;;;;5218174;22;20031;-81
2024/01/29 00:26:59;;;;;;;7.32;3.53;;;6.50;99.90;;;;;;5245898;22;20086;-80
2024/01/29 00:29:00;;;;;;;3.70;2.05;;;6.50;99.90;;;;;;5245752;22;20014;-80
2024/01/29 00:31:02;;;;;;;6.57;2.65;;;6.50;99.90;;;;;;5245553;22;20456;-80
2024/01/29 00:33:03;;;;;;;5.05;2.47;;;6.40;99.90;;;;;;5217573;22;20433;-80
2024/01/29 00:35:04;;;;;;;6.53;2.45;;;6.40;99.90;;;;;;5217885;22;20023;-80
2024/01/29 00:37:05;;;;;;;8.88;2.83;;;6.40;99.90;;;;;;5245660;22;20465;-80
2024/01/29 00:39:09;;;;;;;4.65;1.98;;;6.40;99.90;;;;;;5245146;22;20068;-80
2024/01/29 00:41:09;;;;;;;3.67;2.20;;;6.40;99.90;;;;;;5245385;22;20015;-81
2024/01/29 00:43:10;;;;;;;4.22;2.00;;;6.40;99.90;;;;;;5217712;22;20090;-80
2024/01/29 00:45:11;;;;;;;4.93;2.33;;;6.40;99.90;;;;;;5245174;22;20022;-80
2024/01/29 00:47:12;;;;;;;4.05;2.20;;;6.70;99.90;;;;;;5245894;22;20022;-80
2024/01/29 00:49:13;;;;;;;6.93;2.70;;;6.40;99.90;;;;;;5218326;22;20086;-81
2024/01/29 00:51:13;;;;;;;6.85;2.38;;;6.40;99.90;;;;;;5245718;22;20067;-81
2024/01/29 00:53:16;;;;;;;6.35;2.38;;;6.40;99.90;;;;;;5245434;22;20025;-81
2024/01/29 00:55:16;;;;;;;5.07;2.47;;;6.40;99.90;;;;;;5218167;22;20012;-81
2024/01/29 00:57:19;;;;;;;5.50;2.58;;;6.90;99.90;;;;;;5245404;22;20057;-81
2024/01/29 00:59:19;;;;;;;3.95;2.10;;;6.30;99.90;;;;;;5245818;22;20015;-81
2024/01/29 01:01:21;;;;;;;6.72;2.50;;;6.30;99.90;;;;;;5245813;22;20018;-81
2024/01/29 01:03:23;;;;;;;5.00;2.00;;;6.50;99.90;;;;;;5218358;22;20019;-81
2024/01/29 01:05:24;;;;;;;5.25;2.20;;;6.40;99.90;;;;;;5245979;22;20011;-81
2024/01/29 01:07:24;;;;;;;5.18;2.30;;;6.30;99.90;;;;;;5245724;22;20029;-81
2024/01/29 01:09:25;;;;;;;6.13;2.80;;;6.30;99.90;;;;;;5245384;22;20025;-81
2024/01/29 01:11:26;;;;;;;3.70;2.28;;;6.30;99.90;;;;;;5245786;22;20068;-81
2024/01/29 01:13:26;;;;;;;5.75;2.72;;;6.30;99.90;;;;;;5245397;22;20015;-81
2024/01/29 01:15:28;;;;;;;5.78;2.28;;;6.30;99.90;;;;;;5246824;22;20053;-80
2024/01/29 01:17:31;;;;;;;3.90;1.73;;;6.30;99.90;;;;;;5247102;22;20011;-81
2024/01/29 01:19:32;;;;;;;6.63;2.80;;;6.20;99.90;;;;;;5247274;22;20025;-80
2024/01/29 01:21:32;;;;;;;5.72;2.50;;;6.50;99.90;;;;;;5247238;22;20011;-81
2024/01/29 01:23:34;;;;;;;6.75;2.60;;;6.20;99.90;;;;;;5246236;22;20026;-81
2024/01/29 01:25:36;;;;;;;7.85;2.70;;;6.10;99.90;;;;;;5247005;22;20020;-80
2024/01/29 01:27:37;;;;;;;4.90;2.78;;;6.10;99.90;;;;;;5219509;22;20022;-80
2024/01/29 01:29:37;;;;;;;5.05;2.38;;;6.10;99.90;;;;;;5246998;22;20455;-80
2024/01/29 01:31:39;;;;;;;7.35;2.13;;;6.20;99.90;;;;;;5247080;22;20489;-80
2024/01/29 01:33:40;;;;;;;5.40;2.10;;;6.00;99.90;;;;;;5246998;22;20440;-80
2024/01/29 01:35:41;;;;;;;4.47;2.15;;;;;;;;;;5246242;22;20021;-80
2024/01/29 01:37:42;;;;;;;5.88;2.22;;;6.00;99.90;;;;;;5247193;22;20022;-80
2024/01/29 01:39:44;;;;;;;5.82;2.40;;;6.20;99.90;;;;;;5219818;22;20083;-80
2024/01/29 01:41:50;;;;;;;5.32;2.20;;;6.00;99.90;;;;;;5246648;22;20136;-81
2024/01/29 01:43:50;;;;;;;6.30;2.58;;;6.00;99.90;;;;;;5246648;22;20010;-80
2024/01/29 01:46:16;;;;;;;6.00;2.83;;;5.90;99.90;;;;;;5219727;22;20042;-80
2024/01/29 01:48:16;;;;;;;6.93;2.20;;;6.00;99.90;;;;;;5247118;22;20034;-80
2024/01/29 01:50:17;;;;;;;4.72;2.00;;;6.00;99.90;;;;;;5247596;22;20530;-81
2024/01/29 01:52:20;;;;;;;4.32;2.03;;;5.90;99.90;;;;;;5247756;22;20096;-80
2024/01/29 01:54:21;;;;;;;4.65;2.40;;;6.00;99.90;;;;;;5220085;22;20026;-80
2024/01/29 01:56:22;;;;;;;5.22;2.30;;;6.00;99.90;;;;;;5247125;22;20018;-80
2024/01/29 01:58:24;;;;;;;6.00;2.33;;;6.90;99.90;;;;;;5219614;22;20023;-80
2024/01/29 02:00:26;;;;;;;4.82;2.80;;;5.90;99.90;;;;;;5219151;22;20015;-81
2024/01/29 02:02:28;;;;;;;5.40;2.25;;;5.90;99.90;;;;;;5247694;22;20014;-81
2024/01/29 02:04:28;;;;;;;5.13;2.03;;;6.60;99.90;;;;;;5247282;22;20015;-80
2024/01/29 02:06:29;;;;;;;4.57;2.50;;;5.80;99.90;;;;;;5247029;22;20022;-80
2024/01/29 02:08:30;;;;;;;10.48;2.90;;;5.80;99.90;;;;;;5247252;22;20021;-80
2024/01/29 02:10:31;;;;;;;5.20;2.75;;;5.80;99.90;;;;;;5247273;22;20071;-80
2024/01/29 02:12:32;;;;;;;6.05;2.50;;;5.80;99.90;;;;;;5246577;22;20457;-80
2024/01/29 02:14:34;;;;;;;6.22;2.85;;;5.80;99.90;;;;;;5246575;22;20018;-80
2024/01/29 02:16:35;;;;;;;5.78;2.47;;;6.40;99.90;;;;;;5247351;22;20086;-81
2024/01/29 02:18:35;;;;;;;4.50;2.15;;;5.80;99.90;;;;;;5247112;22;20083;-81
2024/01/29 02:20:36;;;;;;;4.43;2.65;;;5.80;99.90;;;;;;5246794;22;20018;-81
2024/01/29 02:22:43;;;;;;;5.30;2.42;;;5.80;99.90;;;;;;5247242;22;20015;-80
2024/01/29 02:24:45;;;;;;;4.32;2.05;;;5.80;99.90;;;;;;5247728;22;20018;-80
2024/01/29 02:26:48;;;;;;;6.30;2.30;;;5.80;99.90;;;;;;5246195;22;20341;-81
2024/01/29 02:28:48;;;;;;;8.20;2.67;;;6.30;99.90;;;;;;5247212;22;20425;-81
2024/01/29 02:30:51;;;;;;;3.33;2.08;;;6.30;99.90;;;;;;5246924;22;20091;-81
2024/01/29 02:32:52;;;;;;;5.72;2.35;;;6.10;99.90;;;;;;5247135;22;20018;-80
2024/01/29 02:34:52;;;;;;;7.10;2.60;;;5.70;99.90;;;;;;5247220;22;20042;-80
2024/01/29 02:36:53;;;;;;;5.63;2.67;;;5.60;99.90;;;;;;5246561;22;20067;-81
2024/01/29 02:38:54;;;;;;;5.72;2.17;;;5.70;99.90;;;;;;5247242;22;20019;-81
2024/01/29 02:40:54;;;;;;;3.60;2.55;;;5.60;99.90;;;;;;5247302;22;20023;-81
2024/01/29 02:42:55;;;;;;;4.95;2.72;;;6.40;99.90;;;;;;5219582;22;20072;-81
2024/01/29 02:44:57;;;;;;;4.35;2.47;;;5.60;99.90;;;;;;5246369;22;20337;-81
2024/01/29 02:46:58;;;;;;;4.55;2.40;;;6.10;99.90;;;;;;5219721;22;20460;-80
2024/01/29 02:48:59;;;;;;;5.05;2.47;;;5.50;99.90;;;;;;5247536;22;20090;-80
2024/01/29 02:50:59;;;;;;;6.22;2.65;;;5.50;99.90;;;;;;5246825;22;20081;-80
2024/01/29 02:53:00;;;;;;;4.28;2.70;;;5.50;99.90;;;;;;5246885;22;20080;-80
2024/01/29 02:55:01;;;;;;;6.30;2.80;;;6.10;99.90;;;;;;5246657;22;20086;-80
2024/01/29 02:57:02;;;;;;;5.93;2.65;;;6.00;99.90;;;;;;5246828;22;20341;-80
2024/01/29 02:59:03;;;;;;;6.95;2.58;;;5.50;99.90;;;;;;5246748;22;20025;-80
2024/01/29 03:01:04;;;;;;;7.40;2.85;;;5.50;99.90;;;;;;5247024;22;20468;-80
2024/01/29 03:03:05;;;;;;;4.28;2.05;;;5.50;99.90;;;;;;5247208;22;20052;-80
2024/01/29 03:05:07;;;;;;;4.53;2.40;;;5.50;99.90;;;;;;5247254;22;20042;-80
2024/01/29 03:07:07;;;;;;;7.60;2.90;;;5.40;99.90;;;;;;5246784;22;20493;-80
2024/01/29 03:09:09;;;;;;;7.43;2.33;;;5.40;99.90;;;;;;5246292;22;20026;-80
2024/01/29 03:11:10;;;;;;;4.18;2.38;;;5.40;99.90;;;;;;5247097;22;20018;-80
2024/01/29 03:13:10;;;;;;;4.50;2.50;;;5.40;99.90;;;;;;5247101;22;20015;-80
2024/01/29 03:15:11;;;;;;;5.75;2.47;;;5.40;99.90;;;;;;5247362;22;20011;-80
2024/01/29 03:17:12;;;;;;;5.78;2.60;;;5.40;99.90;;;;;;5246952;22;20022;-80
2024/01/29 03:19:12;;;;;;;3.90;2.35;;;6.30;99.90;;;;;;5246636;22;20015;-80
2024/01/29 03:21:14;;;;;;;4.85;2.58;;;5.40;99.90;;;;;;5247197;22;20019;-80
2024/01/29 03:23:14;;;;;;;4.65;2.33;;;5.40;99.90;;;;;;5246775;22;20023;-80
2024/01/29 03:25:15;;;;;;;8.02;3.00;;;5.30;99.90;;;;;;5247361;22;20029;-80
2024/01/29 03:27:16;;;;;;;7.80;3.28;;;5.30;99.90;;;;;;5247127;22;20007;-80
2024/01/29 03:29:16;;;;;;;5.57;2.55;;;5.30;99.90;;;;;;5246467;22;20045;-80
2024/01/29 03:31:17;;;;;;;5.80;2.63;;;5.30;99.90;;;;;;5246820;22;20018;-81
2024/01/29 03:33:18;;;;;;;6.80;3.08;;;5.30;99.90;;;;;;5247119;22;20013;-80
2024/01/29 03:35:19;;;;;;;7.90;2.90;;;5.90;99.90;;;;;;5247065;22;20014;-80
2024/01/29 03:37:19;;;;;;;6.47;3.05;;;5.20;99.90;;;;;;5246033;22;20449;-80
2024/01/29 03:39:20;;;;;;;6.78;2.67;;;5.20;99.90;;;;;;5246541;22;20565;-80
2024/01/29 03:41:22;;;;;;;7.05;2.55;;;5.20;99.90;;;;;;5247382;22;20342;-80
2024/01/29 03:43:22;;;;;;;3.88;2.50;;;5.20;99.90;;;;;;5247384;22;20042;-80
2024/01/29 03:45:23;;;;;;;5.22;2.60;;;6.00;99.90;;;;;;5247344;22;20359;-80
2024/01/29 03:47:24;;;;;;;5.60;2.53;;;5.20;99.90;;;;;;5246723;22;20030;-80
2024/01/29 03:49:25;;;;;;;5.72;2.50;;;5.90;99.90;;;;;;5247274;22;20105;-80
2024/01/29 03:51:26;;;;;;;5.90;3.13;;;5.20;99.90;;;;;;5247540;22;20059;-80
2024/01/29 03:53:27;;;;;;;5.47;3.22;;;5.10;99.90;;;;;;5247240;22;20464;-80
2024/01/29 03:55:27;;;;;;;6.22;3.47;;;5.10;99.90;;;;;;5219895;22;20012;-80
2024/01/29 03:57:28;;;;;;;6.60;2.80;;;5.10;99.90;;;;;;5246874;22;20021;-80
2024/01/29 03:59:32;;;;;;;10.65;3.10;;;5.10;99.90;;;;;;5246703;22;20050;-80
2024/01/29 04:01:33;;;;;;;3.83;2.38;;;5.10;99.90;;;;;;5246959;22;20021;-81
2024/01/29 04:03:37;;;;;;;7.80;3.00;;;5.10;99.90;;;;;;5219729;22;20461;-81
2024/01/29 04:05:39;;;;;;;5.10;2.70;;;5.10;99.90;;;;;;5247394;22;20310;-80
2024/01/29 04:07:39;;;;;;;4.97;2.85;;;5.10;99.90;;;;;;5247769;22;20019;-80
2024/01/29 04:09:40;;;;;;;5.43;2.65;;;;;;;;;;5246960;22;20017;-80
2024/01/29 04:11:41;;;;;;;6.47;3.03;;;;;;;;;;5246893;22;20119;-81
2024/01/29 04:13:43;;;;;;;4.22;2.58;;;;;;;;;;5219642;22;20062;-80
2024/01/29 04:15:44;;;;;;;7.65;3.53;;;;;;;;;;5247687;22;20098;-80
2024/01/29 04:17:45;;;;;;;8.43;2.90;;;;;;;;;;5247193;22;20014;-80
2024/01/29 04:19:46;;;;;;;4.25;2.92;;;;;;;;;;5247232;22;20090;-80
2024/01/29 04:21:47;;;;;;;3.92;2.70;;;;;;;;;;5247336;22;20015;-80
2024/01/29 04:23:48;;;;;;;6.35;2.65;;;;;;;;;;5246858;22;20014;-80
2024/01/29 04:25:49;;;;;;;7.18;3.00;;;;;;;;;;5247025;22;20472;-80
2024/01/29 04:27:51;;;;;;;6.35;3.13;;;;;;;;;;5247193;22;20023;-81
2024/01/29 04:29:52;;;;;;;7.72;3.88;;;;;;;;;;5247296;22;20014;-81
2024/01/29 04:31:53;;;;;;;5.25;2.95;;;;;;;;;;5247660;22;20504;-80
2024/01/29 04:33:55;;;;;;;4.22;2.50;;;;;;;;;;5247139;22;20325;-80
2024/01/29 04:35:56;;;;;;;5.20;2.63;;;;;;;;;;5247027;22;20054;-80
2024/01/29 04:37:57;;;;;;;5.95;2.78;;;;;;;;;;5247348;22;20718;-80
2024/01/29 04:40:00;;;;;;;5.88;2.67;;;;;;;;;;5247859;22;20011;-81
2024/01/29 04:42:01;;;;;;;6.43;2.70;;;;;;;;;;5247807;22;20011;-80
2024/01/29 04:44:04;;;;;;;4.97;2.92;;;;;;;;;;5247645;22;20472;-80
2024/01/29 04:46:06;;;;;;;6.20;2.65;;;;;;;;;;5219815;22;20023;-81
2024/01/29 04:48:07;;;;;;;6.53;3.22;;;;;;;;;;5248376;22;20018;-80
2024/01/29 04:50:08;;;;;;;6.22;3.13;;;;;;;;;;5248933;22;20018;-81
2024/01/29 04:52:09;;;;;;;8.00;2.90;;;;;;;;;;5249860;22;20014;-80
2024/01/29 04:54:10;;;;;;;5.28;2.97;;;;;;;;;;5249797;22;20025;-80
2024/01/29 04:56:12;;;;;;;7.10;3.42;;;;;;;;;;5251713;22;20033;-79
2024/01/29 04:58:14;;;;;;;8.90;3.15;;;;;;;;;;5258104;22;20026;-80
2024/01/29 05:00:15;;;;;;;5.30;3.08;;;;;;;;;;5260677;22;20387;-80
2024/01/29 05:02:16;;;;;;;8.30;3.35;;;;;;;;;;5261286;22;20070;-80
2024/01/29 05:04:18;;;;;;;6.00;3.08;;;;;;;;;;5262520;22;20034;-81
2024/01/29 05:06:20;;;;;;;7.25;3.38;;;;;;;;;;5256532;22;20433;-81
2024/01/29 05:08:21;;;;;;;5.13;3.08;;;;;;;;;;5249356;22;20437;-81
2024/01/29 05:10:24;;;;;;;6.72;3.80;;;;;;;;;;5249187;22;20467;-81
2024/01/29 05:12:25;;;;;;;5.38;3.10;;;;;;;;;;5249940;22;20090;-81
2024/01/29 05:14:32;;;;;;;6.82;3.88;;;;;;;;;;5249595;22;20494;-81
2024/01/29 05:16:37;;;;;;;7.75;3.75;;;;;;;;;;5250251;22;20520;-81
2024/01/29 05:18:38;;;;;;;6.53;3.15;;;;;;;;;;5250036;22;20011;-81
2024/01/29 05:20:39;;;;;;;6.30;2.83;;;;;;;;;;5249275;22;20014;-81
2024/01/29 05:22:41;;;;;;;6.53;3.17;;;;;;;;;;5220852;22;20069;-81
2024/01/29 05:24:42;;;;;;;9.20;3.78;;;;;;;;;;5248931;22;20097;-81
2024/01/29 05:26:43;;;;;;;4.40;2.63;;;;;;;;;;5249057;22;20026;-81
2024/01/29 05:28:44;;;;;;;6.90;3.40;;;;;;;;;;5248994;22;20021;-81
2024/01/29 05:30:46;;;;;;;6.05;3.40;;;;;;;;;;5249199;22;20059;-81
2024/01/29 05:32:49;;;;;;;7.50;3.17;;;;;;;;;;5249155;22;20496;-81
2024/01/29 05:34:50;;;;;;;6.07;3.22;;;;;;;;;;5249553;22;20433;-79
2024/01/29 05:36:51;;;;;;;11.43;3.83;;;;;;;;;;5248456;22;20430;-81
2024/01/29 05:38:52;;;;;;;7.53;3.42;;;;;;;;;;5248771;22;20019;-81
2024/01/29 05:40:54;;;;;;;7.35;3.50;;;;;;;;;;5247919;22;20856;-81
2024/01/29 05:42:57;;;;;;;7.03;3.40;;;;;;;;;;5248635;22;20437;-80
2024/01/29 05:44:59;;;;;;;5.47;3.72;;;;;;;;;;5248502;22;20022;-82
2024/01/29 05:47:00;;;;;;;6.78;3.70;;;;;;;;;;5248153;22;20054;-81
2024/01/29 05:49:01;;;;;;;5.70;3.30;;;;;;;;;;5247972;22;20022;-82
2024/01/29 05:51:02;;;;;;;5.95;3.65;;;;;;;;;;5248081;22;20345;-81
2024/01/29 05:53:03;;;;;;;6.90;3.58;;;;;;;;;;5247735;22;20068;-82
2024/01/29 05:55:05;;;;;;;7.60;3.17;;;;;;;;;;5248571;22;20031;-81
2024/01/29 05:57:10;;;;;;;5.60;3.33;;;;;;;;;;5247996;22;20098;-81
2024/01/29 05:59:13;;;;;;;8.55;3.58;;;;;;;;;;5248326;22;20011;-82
2024/01/29 06:01:14;;;;;;;8.48;3.60;;;;;;;;;;5247463;22;20060;-82
2024/01/29 06:03:19;;;;;;;7.05;3.38;;;;;;;;;;5220412;22;20092;-82
2024/01/29 06:05:20;;;;;;;9.68;3.15;;;;;;;;;;5248839;22;20014;-82
2024/01/29 06:07:21;;;;;;;5.80;3.10;;;;;;;;;;5248753;22;20437;-81
2024/01/29 06:09:24;;;;;;;10.05;4.18;;;;;;;;;;5248461;22;20019;-82
2024/01/29 06:11:26;;;;;;;6.88;3.38;;;;;;;;;;5248852;22;20019;-79
2024/01/29 06:13:27;;;;;;;8.02;3.47;;;;;;;;;;5248943;22;20461;-80
2024/01/29 06:15:28;;;;;;;6.80;3.47;;;;;;;;;;5248700;22;20022;-81
2024/01/29 06:17:31;;;;;;;5.13;3.22;;;;;;;;;;5248170;22;20075;-81
2024/01/29 06:19:32;;;;;;;5.60;3.58;;;;;;;;;;5220695;22;20023;-81
2024/01/29 06:21:34;;;;;;;6.00;3.38;;;;;;;;;;5248628;22;20022;-81
2024/01/29 06:23:35;;;;;;;6.68;2.95;;;;;;;;;;5247767;22;20022;-81
2024/01/29 06:25:36;;;;;;;6.95;3.15;;;;;;;;;;5248097;22;20026;-81
2024/01/29 06:27:37;;;;;;;6.20;3.88;;;;;;;;;;5249195;22;20464;-81
2024/01/29 06:29:38;;;;;;;9.20;4.13;;;;;;;;;;5248354;22;20019;-81
2024/01/29 06:31:40;;;;;;;6.25;3.30;;;;;;;;;;5248423;22;20042;-81
2024/01/29 06:33:42;;;;;;;7.55;3.25;;;;;;;;;;5248658;22;20007;-81
2024/01/29 06:35:43;;;;;;;6.15;3.58;;;;;;;;;;5220764;22;20011;-81
2024/01/29 06:37:44;;;;;;;7.13;3.80;;;;;;;;;;5248527;22;20022;-81
2024/01/29 06:39:46;;;;;;;6.38;3.45;;;;;;;;;;5221503;22;20091;-81
2024/01/29 06:41:47;;;;;;;7.30;3.42;;;;;;;;;;5247660;22;20015;-81
2024/01/29 06:43:49;;;;;;;8.07;3.80;;;;;;;;;;5248081;22;20019;-81
2024/01/29 06:45:52;;;;;;;8.77;3.78;;;;;;;;;;5220778;22;20015;-81
2024/01/29 06:47:53;;;;;;;9.68;3.35;;;;;;;;;;5248259;22;20107;-81
2024/01/29 06:49:58;;;;;;;8.35;3.40;;;;;;;;;;5248075;22;20442;-82
2024/01/29 06:51:59;;;;;;;8.70;3.95;;;;;;;;;;5248601;22;20070;-81
2024/01/29 06:54:03;;;;;;;8.82;3.70;;;;;;;;;;5248443;22;20516;-81
2024/01/29 06:56:07;;;;;;;5.63;3.58;;;;;;;;;;5247764;22;20046;-81
2024/01/29 06:58:09;;;;;;;8.05;4.38;;;;;;;;;;5248628;22;20062;-81
2024/01/29 07:00:10;;;;;;;9.18;3.70;;;;;;;;;;5248563;22;20330;-81
2024/01/29 07:02:12;;;;;;;6.60;4.00;;;;;;;;;;5247869;22;20022;-81
2024/01/29 07:04:13;;;;;;;8.75;3.80;;;;;;;;;;5248825;22;20019;-82
2024/01/29 07:06:15;;;;;;;7.38;3.92;;;;;;;;;;5247648;22;20338;-81
2024/01/29 07:08:16;;;;;;;7.65;3.90;;;;;;;;;;5248406;22;20015;-81
2024/01/29 07:10:17;;;;;;;13.50;4.15;;;;;;;;;;5247761;22;20021;-81
2024/01/29 07:12:18;;;;;;;8.75;4.20;;;;;;;;;;5220194;22;20036;-81
2024/01/29 07:14:19;;;;;;;10.63;4.50;;;;;;;;;;5248073;22;20068;-81
2024/01/29 07:16:20;;;;;;;8.77;3.97;;;;;;;;;;5247734;22;20770;-82
2024/01/29 07:18:22;;;;;;;10.48;4.82;;;;;;;;;;5219156;22;20061;-81
2024/01/29 07:20:24;;;;;;;10.10;3.78;;;;;;;;;;5193562;22;20020;-81
2024/01/29 07:22:25;;;;;;;9.63;3.63;;;;;;;;;;5219804;22;20023;-81
2024/01/29 07:24:26;;;;;;;8.32;4.22;;;;;;;;;;5246952;22;20050;-81
2024/01/29 07:26:27;;;;;;;8.27;4.28;;;;;;;;;;5247873;22;20047;-82
2024/01/29 07:28:30;;;;;;;6.57;4.25;;;;;;;;;;5247735;22;20010;-81
2024/01/29 07:30:31;;;;;;;8.95;4.40;;;;;;;;;;5247894;22;20015;-79
2024/01/29 07:32:32;;;;;;;9.60;4.97;;;;;;;;;;5247491;22;20017;-79
2024/01/29 07:34:34;;;;;;;7.40;3.60;;;;;;;;;;5247348;22;20046;-79
2024/01/29 07:36:38;;;;;;;7.55;3.45;;;;;;;;;;5220101;22;20017;-81
2024/01/29 07:38:40;;;;;;;6.35;3.80;;;;;;;;;;5248097;22;20011;-81
2024/01/29 07:40:47;;;;;;;9.63;4.10;;;;;;;;;;5194195;22;20051;-81
2024/01/29 07:42:48;;;;;;;8.55;4.15;;;;;;;;;;5220325;22;20077;-81
2024/01/29 07:44:50;;;;;;;7.47;4.00;;;;;;;;;;5220135;22;20571;-80
2024/01/29 07:46:51;;;;;;;7.85;3.90;;;;;;;;;;5247878;22;20047;-81
2024/01/29 07:48:52;;;;;;;7.10;4.07;;;;;;;;;;5220148;22;20382;-79
2024/01/29 07:50:53;;;;;;;7.32;4.18;;;;;;;;;;5247568;22;20069;-80
2024/01/29 07:52:54;;;;;;;9.25;4.65;;;;;;;;;;5247950;22;20050;-80
2024/01/29 07:54:55;;;;;;;12.48;4.60;;;;;;;;;;5219562;22;20453;-79
2024/01/29 07:56:56;;;;;;;8.85;4.50;;;;;;;;;;5247532;22;20103;-80
2024/01/29 07:58:57;;;;;;;9.52;4.85;;;;;;;;;;5247272;22;20427;-80
2024/01/29 08:00:58;;;;;;;11.60;4.47;;;;;;;;;;5246897;22;20413;-80
2024/01/29 08:02:59;;;;;;;7.93;4.43;;;;;;;;;;5246976;22;20011;-80
2024/01/29 08:05:02;;;;;;;8.02;4.35;;;;;;;;;;5247009;22;20377;-80
2024/01/29 08:07:04;;;;;;;8.82;4.70;;;;;;;;;;5219170;22;20030;-80
2024/01/29 08:09:05;;;;;;;10.15;4.55;;;;;;;;;;5246815;22;20015;-80
2024/01/29 08:11:07;;;;;;;9.15;4.35;;;;;;;;;;5247113;22;20089;-79
2024/01/29 08:13:08;;;;;;;8.10;3.72;;;;;;;;;;5246967;22;20014;-80
2024/01/29 08:15:11;;;;;;;9.52;4.75;;;;;;;;;;5219384;22;20388;-80
2024/01/29 08:17:12;;;;;;;6.93;4.30;;;;;;;;;;5219176;22;20030;-80
2024/01/29 08:19:13;;;;;;;11.68;4.43;;;;;;;;;;5247100;22;20089;-80
2024/01/29 08:21:14;;;;;;;8.57;4.75;;;;;;;;;;5246448;22;20018;-80
2024/01/29 08:23:15;;;;;;;7.80;4.57;;;;;;;;;;5247085;22;20015;-80
2024/01/29 08:25:16;;;;;;;11.45;4.10;;;;;;;;;;5245987;22;20094;-80
2024/01/29 08:27:17;;;;;;;7.70;4.35;;;;;;;;;;5246008;22;20026;-80
2024/01/29 08:29:20;;;;;;;8.93;4.45;;;;;;;;;;5246748;22;20021;-80
2024/01/29 08:31:21;;;;;;;9.85;4.47;;;;;;;;;;5246871;22;20011;-80
2024/01/29 08:33:23;;;;;;;10.68;4.90;;;;;;;;;;5246499;22;20510;-80
2024/01/29 08:35:24;;;;;;;9.40;4.88;;;;;;;;;;5245638;22;20021;-80
2024/01/29 08:37:27;;;;;;;8.50;4.53;;;;;;;;;;5246506;22;20071;-80
2024/01/29 08:39:29;;;;;;;7.45;4.68;;;;;;;;;;5218936;22;20015;-80
2024/01/29 08:41:32;;;;;;;9.90;4.90;;;;;;;;;;5245902;22;20330;-80
2024/01/29 08:43:34;;;;;;;8.48;4.82;;;;;;;;;;5218615;22;20022;-80
2024/01/29 08:45:36;;;;;;;9.20;4.57;;;;;;;;;;5218531;22;20360;-80
2024/01/29 08:47:37;;;;;;;7.97;4.60;;;;;;;;;;5245473;22;20019;-80
2024/01/29 08:49:38;;;;;;;7.25;4.70;;;;;;;;;;5245929;22;20046;-80
2024/01/29 08:51:41;;;;;;;9.45;4.38;;;;;;;;;;5245605;22;20062;-80
2024/01/29 08:53:43;;;;;;;9.68;4.95;;;;;;;;;;5245439;22;20072;-80
2024/01/29 08:55:45;;;;;;;8.07;3.88;;;;;;;;;;5245112;22;20022;-80
2024/01/29 08:57:46;;;;;;;9.25;4.65;;;;;;;;;;5245560;22;20021;-80
2024/01/29 08:59:47;;;;;;;9.40;4.65;;;;;;;;;;5245774;22;20015;-80
2024/01/29 09:01:49;;;;;;;13.10;5.03;;;;;;;;;;5245093;22;20022;-80
2024/01/29 09:03:52;;;;;;;7.90;4.35;;;;;;;;;;5245254;22;20019;-80
2024/01/29 09:05:53;;;;;;;9.10;4.20;;;;;;;;;;5216966;22;20473;-80
2024/01/29 09:07:55;;;;;;;10.50;4.53;;;;;;;;;;5245165;22;20090;-80
2024/01/29 09:09:57;;;;;;;8.30;4.55;;;;;;;;;;5245119;22;20015;-80
2024/01/29 09:11:58;;;;;;;12.45;5.15;;;;;;;;;;5245324;22;20097;-80
2024/01/29 09:13:59;;;;;;;10.27;4.60;;;;;;;;;;5244949;22;20060;-80
2024/01/29 09:16:00;;;;;;;7.70;4.15;;;;;;;;;;5244802;22;20019;-80
2024/01/29 09:18:01;;;;;;;8.75;4.57;;;;;;;;;;5244458;22;20332;-80
2024/01/29 09:20:04;;;;;;;7.47;4.88;;;;;;;;;;5245142;22;20019;-80
2024/01/29 09:22:05;;;;;;;9.68;4.97;;;;;;;;;;5245252;22;20383;-80
2024/01/29 09:24:06;;;;;;;10.02;4.93;;;;;;;;;;5244948;22;20333;-80
2024/01/29 09:26:07;;;;;;;9.20;4.60;;;;;;;;;;5244878;22;20084;-79
2024/01/29 09:28:08;;;;;;;8.38;4.80;;;;;;;;;;5245007;22;20410;-80
2024/01/29 09:30:09;;;;;;;7.68;4.65;;;;;;;;;;5244459;22;20022;-80
2024/01/29 09:32:11;;;;;;;10.13;5.15;;;;;;;;;;5244911;22;20350;-80
2024/01/29 09:34:12;;;;;;;9.30;5.10;;;;;;;;;;5244562;22;20019;-80
2024/01/29 09:36:13;;;;;;;9.57;5.28;;;;;;;;;;5245089;22;20401;-80
2024/01/29 09:38:15;;;;;;;8.07;4.50;;;;;;;;;;5245779;22;20015;-80
2024/01/29 09:40:16;;;;;;;9.15;5.38;;;;;;;;;;5218813;22;20045;-80
2024/01/29 09:42:18;;;;;;;9.25;5.10;;;;;;;;;;5246503;22;20010;-80
2024/01/29 09:44:19;;;;;;;10.48;4.63;;;;;;;;;;5246273;22;20011;-80
2024/01/29 09:46:20;;;;;;;10.68;5.18;;;;;;;;;;5245746;22;20011;-80
2024/01/29 09:48:22;;;;;;;8.95;4.55;;;;;;;;;;5218901;22;20058;-79
2024/01/29 09:50:24;;;;;;;11.25;5.78;;;;;;;;;;5245892;22;20022;-80
2024/01/29 09:52:26;;;;;;;10.20;5.30;;;;;;;;;;5246106;22;20437;-80
2024/01/29 09:54:27;;;;;;;10.13;4.85;;;;;;;;;;5245652;22;20133;-80
2024/01/29 09:56:28;;;;;;;10.77;5.05;;;;;;;;;;5245604;22;20011;-80
2024/01/29 09:58:29;;;;;;;7.80;3.92;;;;;;;;;;5246196;22;20019;-80
2024/01/29 10:00:30;;;;;;;10.80;5.80;;;;;;;;;;5245643;22;20022;-80
2024/01/29 10:02:34;;;;;;;9.55;5.30;;;;;;;;;;5245639;22;20026;-80
2024/01/29 10:04:35;;;;;;;12.60;5.50;;;;;;;;;;5246212;22;20015;-80
2024/01/29 10:06:36;;;;;;;10.82;5.57;;;;;;;;;;5246037;22;20021;-80
2024/01/29 10:08:38;;;;;;;8.60;5.53;;;;;;;;;;5245870;22;20021;-80
2024/01/29 10:10:39;;;;;;;9.60;5.25;;;;;;;;;;5245842;22;20015;-80
2024/01/29 10:12:40;;;;;;;11.48;5.25;;;;;;;;;;5245143;22;20015;-80
2024/01/29 10:14:42;;;;;;;9.77;5.28;;;;;;;;;;5218658;22;20343;-80
2024/01/29 10:16:43;;;;;;;8.15;5.25;;;;;;;;;;5245701;22;20015;-79
2024/01/29 10:18:44;;;;;;;7.82;4.82;;;;;;;;;;5245591;22;20026;-80
2024/01/29 10:20:45;;;;;;;9.55;5.53;;;;;;;;;;5245368;22;20442;-80
2024/01/29 10:22:51;;;;;;;9.50;5.38;;;;;;;;;;5245525;22;20054;-80
2024/01/29 10:25:04;;;;;;;12.82;6.10;;;;;;;;;;5245550;22;20063;-80
2024/01/29 10:27:09;;;;;;;13.40;5.68;;;;;;;;;;5245819;22;20054;-80
2024/01/29 10:29:11;;;;;;;9.52;5.40;;;;;;;;;;5218185;22;20148;-80
2024/01/29 10:31:12;;;;;;;12.15;5.82;;;;;;;;;;5246042;22;20011;-80
2024/01/29 10:33:13;;;;;;;14.15;5.47;;;;;;;;;;5245565;22;20048;-80
2024/01/29 10:35:15;;;;;;;10.38;5.28;;;;;;;;;;5245248;22;20011;-80
2024/01/29 10:37:16;;;;;;;10.90;5.72;;;;;;;;;;5245736;22;20046;-80
2024/01/29 10:39:19;;;;;;;9.82;5.30;;;;;;;;;;5245835;22;20018;-80
2024/01/29 10:41:23;;;;;;;13.40;6.28;;;;;;;;;;5245803;22;20026;-80
2024/01/29 10:43:27;;;;;;;11.85;6.93;;;;;;;;;;5246216;22;20022;-80
2024/01/29 10:45:28;;;;;;;10.88;5.60;;;;;;;;;;5245578;22;20014;-80
2024/01/29 10:47:30;;;;;;;12.32;6.28;;;;;;;;;;5245330;22;20011;-80
2024/01/29 10:49:32;;;;;;;12.00;6.18;;;;;;;;;;5245060;22;20023;-79
2024/01/29 10:51:33;;;;;;;11.25;6.10;;;;;;;;;;5245913;22;20019;-80
2024/01/29 10:53:35;;;;;;;10.95;6.00;;;;;;;;;;5245605;22;20074;-80
2024/01/29 10:55:37;;;;;;;12.00;6.57;;;;;;;;;;5245539;22;20018;-80
2024/01/29 10:57:39;;;;;;;9.55;6.00;;;;;;;;;;5245758;22;20019;-80
2024/01/29 10:59:43;;;;;;;11.13;6.03;;;;;;;;;;5245517;22;20054;-80
2024/01/29 11:01:45;;;;;;;12.57;6.07;;;;;;;;;;5245115;22;20064;-80
2024/01/29 11:03:46;;;;;;;11.13;5.80;;;;;;;;;;5245255;22;20019;-80
2024/01/29 11:05:54;;;;;;;10.95;6.00;;;;;;;;;;5245783;22;20015;-80
2024/01/29 11:07:57;;;;;;;13.10;6.68;;;;;;;;;;5245375;22;20065;-80
2024/01/29 11:10:12;;;;;;;11.85;6.18;;;;;;;;;;5245380;22;20068;-80
2024/01/29 11:12:13;;;;;;;14.70;7.78;;;;;;;;;;5244871;22;20022;-80
2024/01/29 11:14:19;;;;;;;15.85;7.38;;;;;;;;;;5245645;22;20359;-80
2024/01/29 11:16:24;;;;;;;16.45;8.27;;;;;;;;;;5245409;22;20064;-80
2024/01/29 11:18:25;;;;;;;17.58;7.18;;;;;;;;;;5245701;22;20011;-80
2024/01/29 11:20:31;;;;;;;13.32;7.40;;;;;;;;;;5245180;22;20022;-80
2024/01/29 11:22:36;;;;;;;14.98;7.45;;;;;;;;;;5245661;22;20011;-80
2024/01/29 11:24:39;;;;;;;19.55;8.65;;;;;;;;;;5245311;22;20505;-80
2024/01/29 11:26:42;;;;;;;19.52;7.60;;;;;;;;;;5245386;22;20034;-80
2024/01/29 11:28:43;;;;;;;16.20;7.57;;;;;;;;;;5217966;22;20087;-80
2024/01/29 11:30:54;;;;;;;18.73;8.02;;;;;;;;;;5245334;22;20023;-80
2024/01/29 11:33:14;;;;;;;18.58;8.52;;;;;;;;;;5244899;22;20015;-80